Time;durP1;ratioP1;P1;durP2;ratioP2;P2;SDS_P1;SDS_P2;PMS_P1;PMS_P2;Temp;Humidity;BMP_temperature;BMP_pressure;BME280_temperature;BME280_humidity;BME280_pressure;Samples;Min_cycle;Max_cycle;Signal;HPM_P1;HPM_P2
2023/09/15 00:00:23;;;;;;;8.45;5.72;;;;;;;18.77;56.67;101912.53;5052225;27;20052;-64
2023/09/15 00:02:51;;;;;;;7.20;5.45;;;;;;;18.75;56.65;101914.69;5053876;27;20049;-63
2023/09/15 00:05:21;;;;;;;8.63;5.88;;;;;;;18.76;56.57;101913.59;5055659;27;20485;-64
2023/09/15 00:07:49;;;;;;;7.32;5.50;;;;;;;18.75;56.67;101918.22;5054199;28;20050;-64
2023/09/15 00:10:19;;;;;;;10.70;6.50;;;;;;;18.74;56.80;101916.56;5050944;27;20420;-64
2023/09/15 00:12:46;;;;;;;11.75;5.60;;;;;;;18.73;56.65;101914.09;5067075;27;20053;-64
2023/09/15 00:15:15;;;;;;;8.05;5.32;;;;;;;18.70;56.64;101909.97;5052302;28;20083;-64
2023/09/15 00:17:45;;;;;;;8.68;6.22;;;;;;;18.69;56.54;101908.31;5057385;27;20060;-64
2023/09/15 00:20:14;;;;;;;8.18;5.28;;;;;;;18.67;56.65;101893.31;5054343;27;20052;-64
2023/09/15 00:22:48;;;;;;;7.95;5.47;;;;;;;18.68;56.54;101897.69;5053801;28;20548;-64
2023/09/15 00:25:18;;;;;;;9.15;5.63;;;;;;;18.66;56.79;101897.94;5050861;27;20067;-64
2023/09/15 00:27:47;;;;;;;8.45;5.32;;;;;;;18.65;56.69;101896.28;5057956;27;20139;-64
2023/09/15 00:30:16;;;;;;;8.48;5.60;;;;;;;18.64;56.50;101902.81;5054066;28;20041;-64
2023/09/15 00:32:45;;;;;;;6.53;5.50;;;;;;;18.63;56.67;101893.00;5053596;28;20049;-64
2023/09/15 00:35:16;;;;;;;8.70;5.40;;;;;;;18.62;56.51;101888.63;5055353;28;20156;-63
2023/09/15 00:37:46;;;;;;;6.93;5.30;;;;;;;18.61;56.62;101889.69;5055658;27;20049;-66
2023/09/15 00:40:14;;;;;;;6.63;4.85;;;;;;;18.59;56.80;101893.72;5046763;28;20049;-64
2023/09/15 00:42:42;;;;;;;7.30;5.35;;;;;;;18.57;56.75;101891.22;5059898;27;20076;-64
2023/09/15 00:45:14;;;;;;;7.78;5.28;;;;;;;18.57;56.88;101891.22;5051848;27;20060;-63
2023/09/15 00:47:46;;;;;;;7.47;4.30;;;;;;;18.56;56.82;101886.03;5059143;27;20051;-63
2023/09/15 00:50:16;;;;;;;7.45;5.30;;;;;;;18.53;56.92;101882.75;5058111;28;20049;-64
2023/09/15 00:52:49;;;;;;;8.02;5.22;;;;;;;18.42;56.87;101871.94;5060789;28;20048;-65
2023/09/15 00:55:19;;;;;;;7.95;5.15;;;;;;;18.40;56.76;101866.75;5057187;27;20045;-65
2023/09/15 00:57:50;;;;;;;9.18;6.15;;;;;;;18.45;56.79;101871.44;5057208;28;20049;-65
2023/09/15 01:00:18;;;;;;;12.32;5.63;;;;;;;18.50;56.94;101887.84;5053448;28;20057;-64
2023/09/15 01:02:47;;;;;;;7.75;5.20;;;;;;;18.47;56.87;101881.00;5054929;27;20063;-65
2023/09/15 01:05:22;;;;;;;9.95;5.50;;;;;;;18.47;56.91;101882.91;5051043;28;20093;-64
2023/09/15 01:07:52;;;;;;;7.43;5.03;;;;;;;18.45;56.94;101875.00;5068452;28;20051;-64
2023/09/15 01:10:21;;;;;;;11.40;6.07;;;;;;;18.44;56.98;101878.78;5054793;27;20081;-64
2023/09/15 01:12:52;;;;;;;7.72;5.60;;;;;;;18.44;56.77;101875.25;5071963;27;20096;-64
2023/09/15 01:15:23;;;;;;;9.35;4.72;;;;;;;18.43;56.77;101873.59;5049353;27;20052;-64
2023/09/15 01:17:58;;;;;;;8.20;5.75;;;;;;;18.42;56.91;101871.94;5056045;27;20060;-64
2023/09/15 01:20:46;;;;;;;8.70;5.10;;;;;;;18.40;56.81;101872.19;5068336;27;20136;-64
2023/09/15 01:23:32;;;;;;;10.18;5.47;;;;;;;18.38;56.91;101868.06;5064889;27;20300;-63
2023/09/15 01:26:17;;;;;;;8.98;5.50;;;;;;;18.38;56.85;101862.63;5050192;28;20040;-64
2023/09/15 01:29:14;;;;;;;8.85;5.80;;;;;;;18.37;56.91;101866.44;5070144;27;20058;-64
2023/09/15 01:31:44;;;;;;;11.23;5.72;;;;;;;18.33;56.93;101854.38;5053135;27;20102;-63
2023/09/15 01:34:13;;;;;;;8.90;5.28;;;;;;;18.34;56.99;101858.75;5049262;28;20521;-65
2023/09/15 01:36:41;;;;;;;8.35;5.57;;;;;;;18.28;56.80;101857.03;5054454;27;20083;-63
2023/09/15 01:39:09;;;;;;;8.38;5.40;;;;;;;18.29;56.84;101848.63;5053755;27;20055;-63
2023/09/15 01:41:37;;;;;;;11.88;6.05;;;;;;;18.31;56.98;101856.53;5053761;28;20041;-64
2023/09/15 01:44:05;;;;;;;9.60;6.00;;;;;;;18.29;57.03;101850.50;5054522;27;20045;-64
2023/09/15 01:46:33;;;;;;;11.30;5.75;;;;;;;18.29;56.84;101853.25;5058148;28;20041;-64
2023/09/15 01:49:03;;;;;;;8.52;5.53;;;;;;;18.29;56.77;101847.78;5054298;27;20053;-64
2023/09/15 01:51:31;;;;;;;8.18;5.78;;;;;;;18.27;56.91;101844.50;5054194;28;20045;-65
2023/09/15 01:54:00;;;;;;;7.82;5.68;;;;;;;18.25;57.11;101846.66;5052918;28;20110;-64
2023/09/15 01:56:29;;;;;;;8.68;5.43;;;;;;;18.25;56.93;101852.09;5057799;27;20588;-65
2023/09/15 01:58:57;;;;;;;8.52;5.80;;;;;;;18.23;57.01;101844.16;5053779;28;20507;-64
2023/09/15 02:01:25;;;;;;;10.10;5.88;;;;;;;18.22;56.86;101845.25;5056045;28;20105;-64
2023/09/15 02:03:53;;;;;;;6.78;4.38;;;;;;;18.22;56.88;101845.25;5059932;27;20053;-64
2023/09/15 02:06:22;;;;;;;8.63;5.18;;;;;;;18.20;56.88;101848.22;5055988;27;20057;-65
2023/09/15 02:08:50;;;;;;;7.75;5.90;;;;;;;18.18;56.88;101847.63;5057090;27;20053;-64
2023/09/15 02:11:18;;;;;;;8.60;5.18;;;;;;;18.18;56.98;101844.09;5061380;27;20116;-65
2023/09/15 02:13:47;;;;;;;8.90;5.25;;;;;;;18.17;56.89;101845.97;5054534;27;20474;-64
2023/09/15 02:16:14;;;;;;;7.63;5.43;;;;;;;18.16;57.00;101846.22;5053500;28;20056;-64
2023/09/15 02:18:43;;;;;;;7.32;5.32;;;;;;;18.14;56.96;101838.31;5058912;27;20042;-65
2023/09/15 02:21:11;;;;;;;6.60;4.75;;;;;;;18.12;56.90;101840.47;5056783;28;20041;-64
2023/09/15 02:23:40;;;;;;;7.72;4.85;;;;;;;18.13;56.87;101841.28;5058704;27;20053;-64
2023/09/15 02:26:08;;;;;;;7.53;4.55;;;;;;;18.08;56.85;101833.88;5056217;28;20056;-64
2023/09/15 02:28:36;;;;;;;9.73;4.55;;;;;;;18.09;56.89;101840.97;5053611;27;20082;-64
2023/09/15 02:31:05;;;;;;;9.65;5.22;;;;;;;18.04;56.86;101831.88;5051586;28;20045;-64
2023/09/15 02:33:34;;;;;;;8.38;4.97;;;;;;;18.07;56.77;101837.66;5057291;28;20169;-65
2023/09/15 02:36:03;;;;;;;7.45;4.53;;;;;;;18.06;56.76;101829.75;5059273;28;20045;-64
2023/09/15 02:38:34;;;;;;;8.43;4.65;;;;;;;18.05;57.04;101826.19;5059364;27;20053;-64
2023/09/15 02:41:03;;;;;;;6.95;5.05;;;;;;;17.93;56.90;101809.13;5055898;28;20105;-65
2023/09/15 02:43:31;;;;;;;9.77;4.95;;;;;;;18.03;56.89;101830.25;5056389;27;20057;-64
2023/09/15 02:46:04;;;;;;;12.43;5.15;;;;;;;18.01;56.98;101826.94;5054000;28;20486;-65
2023/09/15 02:48:32;;;;;;;6.82;4.88;;;;;;;18.00;56.81;101823.41;5057739;27;20109;-65
2023/09/15 02:51:00;;;;;;;8.05;4.72;;;;;;;17.99;56.94;101824.47;5056787;28;20073;-64
2023/09/15 02:53:28;;;;;;;6.00;4.15;;;;;;;17.96;56.85;101822.25;5054788;28;20602;-65
2023/09/15 02:55:57;;;;;;;7.60;4.95;;;;;;;17.97;57.11;101823.06;5057598;27;20049;-65
2023/09/15 02:58:27;;;;;;;6.90;5.00;;;;;;;17.95;56.94;101825.22;5056143;28;20047;-65
2023/09/15 03:00:54;;;;;;;8.68;4.40;;;;;;;17.94;57.02;101838.00;5049616;28;20176;-65
2023/09/15 03:03:24;;;;;;;11.10;5.07;;;;;;;17.93;56.80;101824.63;5055517;28;20411;-65
2023/09/15 03:06:03;;;;;;;6.80;4.53;;;;;;;17.92;56.79;101822.97;5051562;27;20052;-65
2023/09/15 03:08:31;;;;;;;7.60;4.88;;;;;;;17.89;57.01;101818.88;5052723;27;20073;-64
2023/09/15 03:10:58;;;;;;;7.68;4.80;;;;;;;17.89;56.82;101814.25;5052112;28;20098;-64
2023/09/15 03:13:28;;;;;;;6.47;4.60;;;;;;;17.89;57.03;101819.69;5057712;28;20041;-64
2023/09/15 03:15:57;;;;;;;6.70;4.20;;;;;;;17.87;56.99;101821.84;5050826;27;20459;-65
2023/09/15 03:18:25;;;;;;;8.45;5.00;;;;;;;17.82;56.73;101810.03;5060761;27;20053;-65
2023/09/15 03:20:53;;;;;;;7.50;4.78;;;;;;;17.86;56.91;101812.03;5060214;27;20053;-64
2023/09/15 03:23:21;;;;;;;6.85;4.43;;;;;;;17.85;56.70;101810.38;5053069;28;20106;-63
2023/09/15 03:25:48;;;;;;;8.70;4.68;;;;;;;17.83;56.82;101809.81;5057022;28;20074;-64
2023/09/15 03:28:16;;;;;;;8.07;4.63;;;;;;;17.83;56.80;101800.81;5055842;27;20046;-64
2023/09/15 03:30:45;;;;;;;8.60;4.10;;;;;;;17.75;56.79;101796.59;5065144;27;20490;-64
2023/09/15 03:33:13;;;;;;;9.68;4.70;;;;;;;17.80;56.50;101806.75;5058514;28;20101;-64
2023/09/15 03:35:41;;;;;;;6.90;4.28;;;;;;;17.78;56.68;101806.16;5057933;27;20056;-65
2023/09/15 03:38:09;;;;;;;7.35;4.35;;;;;;;17.63;56.83;101787.66;5063582;27;20049;-64
2023/09/15 03:40:37;;;;;;;8.55;4.80;;;;;;;17.75;56.71;101812.09;5053530;28;20052;-65
2023/09/15 03:43:06;;;;;;;7.30;4.05;;;;;;;17.73;56.89;101803.38;5073557;28;20060;-64
2023/09/15 03:45:35;;;;;;;8.80;4.55;;;;;;;17.74;56.87;101802.28;5068483;28;20082;-64
2023/09/15 03:48:05;;;;;;;5.78;4.18;;;;;;;17.72;56.96;101802.53;5058783;27;20041;-65
2023/09/15 03:50:33;;;;;;;6.03;4.15;;;;;;;17.71;56.83;101806.31;5063157;27;20053;-64
2023/09/15 03:53:01;;;;;;;8.18;4.47;;;;;;;17.71;56.78;101802.78;5062540;27;20041;-64
2023/09/15 03:55:28;;;;;;;5.90;3.72;;;;;;;17.71;56.73;101797.34;5069093;28;20074;-64
2023/09/15 03:57:56;;;;;;;5.05;4.03;;;;;;;17.62;56.79;101790.63;5057230;28;20049;-64
2023/09/15 04:00:24;;;;;;;6.25;3.63;;;;;;;17.70;56.81;101790.25;5059556;28;20056;-64
2023/09/15 04:02:53;;;;;;;5.28;3.83;;;;;;;17.68;56.66;101801.38;5065898;27;20152;-64
2023/09/15 04:05:22;;;;;;;7.03;4.40;;;;;;;17.67;56.56;101796.19;5056503;28;20052;-64
2023/09/15 04:07:50;;;;;;;6.32;4.18;;;;;;;17.65;56.64;101793.69;5058027;27;20049;-64
2023/09/15 04:10:18;;;;;;;6.80;4.43;;;;;;;17.64;56.68;101796.66;5057921;28;20049;-64
2023/09/15 04:12:46;;;;;;;6.85;3.72;;;;;;;17.63;56.56;101793.09;5061936;27;20040;-65
2023/09/15 04:15:15;;;;;;;6.22;4.55;;;;;;;17.62;56.73;101802.34;5056912;28;20112;-64
2023/09/15 04:17:43;;;;;;;6.13;4.25;;;;;;;17.62;56.73;101798.78;5060250;27;20041;-65
2023/09/15 04:20:12;;;;;;;6.72;4.60;;;;;;;17.51;56.66;101781.47;5056745;27;20045;-64
2023/09/15 04:22:42;;;;;;;7.00;3.85;;;;;;;17.58;56.80;101793.03;5057154;28;20097;-65
2023/09/15 04:25:11;;;;;;;7.30;4.38;;;;;;;17.56;56.78;101803.31;5056356;28;20410;-65
2023/09/15 04:27:39;;;;;;;6.35;3.90;;;;;;;17.57;56.95;101799.53;5054746;27;20075;-64
2023/09/15 04:30:08;;;;;;;6.57;3.78;;;;;;;17.54;56.78;101786.44;5052001;27;20446;-65
2023/09/15 04:32:36;;;;;;;6.20;4.43;;;;;;;17.55;56.75;101785.34;5056686;27;20104;-65
2023/09/15 04:35:05;;;;;;;9.02;4.40;;;;;;;17.53;56.82;101780.16;5063288;27;20056;-64
2023/09/15 04:37:33;;;;;;;9.82;5.13;;;;;;;17.51;56.80;101787.75;5057067;27;20067;-64
2023/09/15 04:40:05;;;;;;;8.48;4.45;;;;;;;17.49;56.79;101787.16;5056682;27;20463;-64
2023/09/15 04:42:33;;;;;;;6.88;4.43;;;;;;;17.47;56.89;101789.28;5054942;28;20533;-64
2023/09/15 04:45:02;;;;;;;8.48;4.28;;;;;;;17.47;56.79;101789.28;5053102;27;20510;-65
2023/09/15 04:47:31;;;;;;;6.70;4.50;;;;;;;17.47;56.75;101788.47;5056106;28;20233;-66
2023/09/15 04:49:59;;;;;;;6.65;3.92;;;;;;;17.45;56.81;101791.44;5055981;27;20080;-62
2023/09/15 04:52:27;;;;;;;6.32;4.22;;;;;;;17.44;56.87;101787.06;5058764;28;20066;-63
2023/09/15 04:54:56;;;;;;;8.13;4.10;;;;;;;17.43;56.92;101795.47;5055698;27;20049;-65
2023/09/15 04:57:25;;;;;;;8.18;4.20;;;;;;;17.42;56.88;101791.91;5061715;27;20045;-63
2023/09/15 04:59:54;;;;;;;5.63;4.30;;;;;;;17.41;56.92;101801.16;5055512;27;20117;-65
2023/09/15 05:02:23;;;;;;;6.00;3.85;;;;;;;17.36;56.58;101795.63;5053662;28;20064;-66
2023/09/15 05:04:52;;;;;;;6.45;4.18;;;;;;;17.39;56.86;101806.00;5049420;28;20052;-65
2023/09/15 05:07:21;;;;;;;5.63;3.70;;;;;;;17.38;57.05;101807.06;5054664;28;20077;-65
2023/09/15 05:09:49;;;;;;;6.00;4.03;;;;;;;17.37;56.92;101808.13;5054606;27;20053;-64
2023/09/15 05:12:18;;;;;;;7.03;3.97;;;;;;;17.35;56.67;101807.56;5051196;27;20161;-65
2023/09/15 05:14:47;;;;;;;5.93;4.68;;;;;;;17.34;57.16;101815.94;5050389;27;20706;-64
2023/09/15 05:17:15;;;;;;;8.75;4.05;;;;;;;17.34;56.85;101814.06;5050422;27;20052;-63
2023/09/15 05:19:42;;;;;;;9.13;4.63;;;;;;;17.32;57.03;101810.78;5059177;27;20060;-64
2023/09/15 05:22:10;;;;;;;6.28;4.20;;;;;;;17.30;57.03;101802.06;5055466;27;20351;-66
2023/09/15 05:24:38;;;;;;;6.72;3.67;;;;;;;17.29;57.05;101807.72;5053138;27;20049;-64
2023/09/15 05:27:06;;;;;;;4.88;3.55;;;;;;;17.29;57.01;101805.84;5050811;27;20060;-65
2023/09/15 05:29:35;;;;;;;6.90;4.43;;;;;;;17.28;56.99;101803.38;5049077;28;20057;-67
2023/09/15 05:32:07;;;;;;;7.35;3.83;;;;;;;17.27;57.00;101805.25;5055122;27;20041;-67
2023/09/15 05:34:35;;;;;;;6.47;3.97;;;;;;;17.27;57.13;101807.97;5058859;27;20081;-66
2023/09/15 05:37:04;;;;;;;8.07;4.18;;;;;;;17.27;57.00;101801.72;5056572;27;20052;-63
2023/09/15 05:39:32;;;;;;;7.18;3.80;;;;;;;17.27;56.95;101807.97;5054074;27;20056;-67
2023/09/15 05:42:00;;;;;;;6.88;4.13;;;;;;;17.26;56.99;101803.59;4412646;27;10000775;-66
2023/09/15 05:44:28;;;;;;;6.20;3.42;;;;;;;17.26;56.97;101813.66;5134011;27;20073;-63
2023/09/15 05:46:56;;;;;;;7.60;4.57;;;;;;;17.24;56.97;101811.19;5133325;27;20039;-65
2023/09/15 05:49:25;;;;;;;5.75;3.60;;;;;;;17.23;56.97;101809.53;5122763;27;20036;-66
2023/09/15 05:51:56;;;;;;;6.55;4.13;;;;;;;17.22;57.04;101813.31;5135355;27;20081;-68
2023/09/15 05:54:26;;;;;;;6.57;3.95;;;;;;;17.21;57.06;101807.06;5128808;27;20084;-68
2023/09/15 05:56:54;;;;;;;8.35;3.67;;;;;;;17.20;57.10;101810.84;5135322;27;20079;-65
2023/09/15 05:59:21;;;;;;;5.55;3.60;;;;;;;17.18;57.17;101809.44;5136705;27;20104;-67
2023/09/15 06:01:49;;;;;;;6.18;3.20;;;;;;;17.19;56.95;101811.91;5131448;27;20066;-66
2023/09/15 06:04:17;;;;;;;6.95;3.88;;;;;;;17.18;57.14;101814.88;5131023;27;20232;-68
2023/09/15 06:06:46;;;;;;;4.72;3.13;;;;;;;17.16;57.12;101806.94;5127528;27;20044;-67
2023/09/15 06:09:14;;;;;;;5.32;3.50;;;;;;;17.15;57.16;101805.31;5132361;27;20468;-68
2023/09/15 06:11:42;;;;;;;10.30;4.72;;;;;;;17.13;57.53;101809.34;5132635;27;20059;-64
2023/09/15 06:14:10;;;;;;;11.50;5.82;;;;;;;16.98;58.40;101811.75;5136495;27;20044;-72
2023/09/15 06:16:39;;;;;;;9.43;4.53;;;;;;;16.96;58.69;101811.97;5121593;27;20057;-75
2023/09/15 06:19:07;;;;;;;7.93;4.20;;;;;;;16.97;58.37;101816.34;5131561;27;20039;-74
2023/09/15 06:21:35;;;;;;;11.55;4.72;;;;;;;17.00;58.15;101815.88;5054911;27;20045;-74
2023/09/15 06:24:05;;;;;;;6.60;3.97;;;;;;;16.95;58.21;101798.66;5058593;27;20076;-74
2023/09/15 06:26:36;;;;;;;9.85;4.00;;;;;;;17.04;58.06;101810.78;5058986;27;20072;-75
2023/09/15 06:29:04;;;;;;;6.53;3.67;;;;;;;17.08;57.88;101806.50;5060324;27;20093;-72
2023/09/15 06:31:32;;;;;;;8.13;4.28;;;;;;;16.98;58.10;101784.59;5052614;27;20044;-72
2023/09/15 06:34:00;;;;;;;7.47;3.70;;;;;;;17.08;58.06;101803.78;5056667;27;20053;-70
2023/09/15 06:36:28;;;;;;;8.52;3.65;;;;;;;17.09;58.00;101803.56;5058498;27;20049;-71
2023/09/15 06:38:56;;;;;;;8.80;3.95;;;;;;;17.00;58.04;101783.28;5051459;27;20098;-72
2023/09/15 06:41:25;;;;;;;9.32;3.10;;;;;;;17.11;57.88;101797.88;5054046;27;20106;-71
2023/09/15 06:43:53;;;;;;;5.50;3.35;;;;;;;17.16;58.00;101797.97;5059978;27;20112;-72
2023/09/15 06:46:22;;;;;;;5.85;3.35;;;;;;;17.12;57.90;101786.78;5057978;27;20120;-73
2023/09/15 06:48:50;;;;;;;6.25;3.20;;;;;;;17.13;57.92;101790.31;5060601;27;20159;-73
2023/09/15 06:51:19;;;;;;;6.43;2.85;;;;;;;17.20;57.89;101804.56;5061219;27;20045;-72
2023/09/15 06:53:46;;;;;;;11.05;3.45;;;;;;;17.21;58.02;101801.63;5059976;27;20053;-73
2023/09/15 06:56:14;;;;;;;6.57;2.95;;;;;;;17.23;57.95;101799.47;5060340;27;20049;-72
2023/09/15 06:58:43;;;;;;;5.10;3.08;;;;;;;17.24;58.00;101795.69;5061189;27;20049;-72
2023/09/15 07:01:12;;;;;;;5.75;3.28;;;;;;;17.28;57.95;101798.75;5056827;28;20045;-72
2023/09/15 07:03:40;;;;;;;5.07;2.80;;;;;;;17.32;57.89;101799.09;5060171;27;20100;-72
2023/09/15 07:06:08;;;;;;;6.72;3.15;;;;;;;17.34;57.95;101796.94;5057386;27;20059;-72
2023/09/15 07:08:35;;;;;;;8.30;3.00;;;;;;;17.34;57.72;101795.03;5058727;27;20045;-71
2023/09/15 07:11:03;;;;;;;6.25;3.05;;;;;;;17.37;57.99;101789.13;5062384;27;20113;-72
2023/09/15 07:13:31;;;;;;;4.10;2.67;;;;;;;17.40;57.97;101795.94;5055135;27;20045;-72
2023/09/15 07:16:00;;;;;;;7.95;3.05;;;;;;;17.42;57.89;101785.66;5050127;27;20056;-72
2023/09/15 07:18:28;;;;;;;7.15;2.88;;;;;;;17.44;57.81;101789.78;5057019;27;20100;-72
2023/09/15 07:20:56;;;;;;;3.50;2.50;;;;;;;17.45;57.86;101791.44;5058800;27;20112;-72
2023/09/15 07:23:24;;;;;;;7.60;3.47;;;;;;;17.46;57.96;101782.22;5057469;27;20074;-72
2023/09/15 07:25:52;;;;;;;5.25;2.88;;;;;;;17.49;57.88;101783.63;5049086;27;20056;-71
2023/09/15 07:28:20;;;;;;;5.63;2.90;;;;;;;17.47;58.04;101778.44;5053088;27;20057;-70
2023/09/15 07:30:48;;;;;;;4.75;2.80;;;;;;;17.35;58.09;101755.09;5053189;27;20144;-71
2023/09/15 07:33:17;;;;;;;5.15;2.90;;;;;;;17.48;58.07;101777.34;5054921;27;20157;-70
2023/09/15 07:35:45;;;;;;;5.60;2.92;;;;;;;17.47;58.19;101777.59;5069017;27;20102;-71
2023/09/15 07:38:13;;;;;;;6.32;2.75;;;;;;;17.46;58.46;101775.94;5056451;27;20044;-71
2023/09/15 07:40:41;;;;;;;5.38;2.50;;;;;;;17.46;58.23;101779.50;5056421;27;20056;-71
2023/09/15 07:43:08;;;;;;;4.45;2.85;;;;;;;17.45;58.42;101774.31;5056040;27;20070;-71
2023/09/15 07:45:37;;;;;;;4.05;2.33;;;;;;;17.44;58.56;101776.19;5051637;27;20079;-72
2023/09/15 07:48:05;;;;;;;5.57;2.55;;;;;;;17.39;58.54;101765.22;5056701;27;20081;-71
2023/09/15 07:50:34;;;;;;;6.75;2.47;;;;;;;17.46;58.41;101771.34;5059336;27;20137;-71
2023/09/15 07:53:02;;;;;;;5.75;2.95;;;;;;;17.46;58.54;101771.34;5057916;27;20044;-71
2023/09/15 07:55:30;;;;;;;4.10;2.67;;;;;;;17.49;58.54;101772.75;5056211;27;20052;-70
2023/09/15 07:57:58;;;;;;;4.55;2.60;;;;;;;17.47;58.72;101773.00;5051752;27;20074;-70
2023/09/15 08:00:26;;;;;;;4.72;2.45;;;;;;;17.47;58.86;101774.88;5056803;27;20135;-69
2023/09/15 08:02:54;;;;;;;3.80;2.55;;;;;;;17.45;58.81;101766.97;5056983;27;20055;-70
2023/09/15 08:05:23;;;;;;;4.60;2.72;;;;;;;17.45;58.64;101766.97;5082838;27;20057;-70
2023/09/15 08:07:52;;;;;;;4.10;2.40;;;;;;;17.44;58.80;101773.47;5055431;27;20072;-70
2023/09/15 08:10:22;;;;;;;3.78;2.40;;;;;;;17.43;58.95;101763.69;5057465;27;20073;-70
2023/09/15 08:12:52;;;;;;;5.40;2.60;;;;;;;17.38;59.07;101754.63;5058266;27;20835;-70
2023/09/15 08:15:21;;;;;;;6.78;2.78;;;;;;;17.41;59.05;101763.09;5045652;27;20200;-68
2023/09/15 08:17:49;;;;;;;4.45;2.63;;;;;;;17.42;59.20;101767.47;5052344;27;20049;-68
2023/09/15 08:20:17;;;;;;;4.22;2.83;;;;;;;17.41;59.20;101768.53;5054814;27;20052;-68
2023/09/15 08:22:45;;;;;;;4.72;2.67;;;;;;;17.40;59.20;101758.72;5055067;28;20102;-72
2023/09/15 08:25:15;;;;;;;5.85;3.08;;;;;;;17.42;59.27;101762.03;5051757;28;20045;-73
2023/09/15 08:27:44;;;;;;;5.32;2.72;;;;;;;17.43;59.39;101757.41;5066688;27;20052;-68
2023/09/15 08:30:13;;;;;;;5.15;2.50;;;;;;;17.43;59.50;101757.41;5049187;27;20060;-73
2023/09/15 08:32:42;;;;;;;4.05;2.45;;;;;;;17.45;59.55;101766.16;5053838;28;20053;-71
2023/09/15 08:35:11;;;;;;;6.90;2.60;;;;;;;17.45;59.43;101764.25;5044659;27;20060;-71
2023/09/15 08:37:38;;;;;;;4.57;2.47;;;;;;;17.46;59.55;101760.47;5052515;28;20063;-74
2023/09/15 08:40:08;;;;;;;5.70;3.15;;;;;;;17.49;59.92;101762.69;5057025;27;20039;-72
2023/09/15 08:42:38;;;;;;;4.40;2.55;;;;;;;17.50;59.83;101760.81;5059165;28;20081;-73
2023/09/15 08:45:07;;;;;;;6.85;3.03;;;;;;;17.51;59.88;101757.84;5052866;28;20054;-72
2023/09/15 08:47:39;;;;;;;6.10;2.70;;;;;;;17.54;59.89;101751.09;5046672;27;20053;-73
2023/09/15 08:50:09;;;;;;;5.45;2.22;;;;;;;17.55;59.76;101750.84;5055660;28;20056;-72
2023/09/15 08:52:37;;;;;;;5.22;2.50;;;;;;;17.57;59.84;101745.97;5050016;28;20060;-72
2023/09/15 08:55:06;;;;;;;6.45;2.45;;;;;;;17.59;59.92;101753.88;5061495;27;20060;-72
2023/09/15 08:57:36;;;;;;;4.78;2.53;;;;;;;17.61;59.92;101751.75;5052775;28;20053;-72
2023/09/15 09:00:08;;;;;;;3.95;2.33;;;;;;;17.62;59.94;101752.56;5055717;28;20045;-72
2023/09/15 09:02:35;;;;;;;3.58;2.45;;;;;;;17.64;59.92;101747.72;5044779;28;20113;-73
2023/09/15 09:05:04;;;;;;;7.50;2.45;;;;;;;17.65;60.04;101749.38;5058068;27;20160;-72
2023/09/15 09:07:32;;;;;;;3.97;2.33;;;;;;;17.67;60.03;101752.69;5060944;28;20120;-71
2023/09/15 09:10:01;;;;;;;3.83;2.22;;;;;;;17.70;60.19;101750.31;5062902;27;20113;-73
2023/09/15 09:12:29;;;;;;;4.05;2.42;;;;;;;17.72;60.50;101750.06;5065502;27;20049;-73
2023/09/15 09:14:57;;;;;;;3.53;2.13;;;;;;;17.73;60.46;101735.38;5056989;28;20049;-73
2023/09/15 09:17:28;;;;;;;3.67;2.50;;;;;;;17.77;60.83;101745.53;5060511;28;20053;-73
2023/09/15 09:19:56;;;;;;;3.42;2.20;;;;;;;17.80;60.39;101744.19;5060101;27;20095;-73
2023/09/15 09:22:25;;;;;;;2.97;2.30;;;;;;;17.72;60.66;101720.97;5062460;28;20045;-74
2023/09/15 09:24:54;;;;;;;4.20;2.05;;;;;;;17.73;60.85;101721.78;5064740;27;20112;-73
2023/09/15 09:27:31;;;;;;;4.50;2.40;;;;;;;17.86;60.88;101740.50;5048159;28;20045;-73
2023/09/15 09:29:58;;;;;;;5.10;2.13;;;;;;;17.89;61.18;101748.16;5046778;28;20083;-73
2023/09/15 09:32:28;;;;;;;4.80;2.20;;;;;;;17.91;60.87;101742.47;5063332;27;20049;-74
2023/09/15 09:34:56;;;;;;;4.03;2.30;;;;;;;17.93;60.88;101740.31;5062151;27;20068;-74
2023/09/15 09:37:26;;;;;;;4.80;2.60;;;;;;;17.94;61.01;101745.50;5064661;27;20053;-74
2023/09/15 09:39:54;;;;;;;5.00;2.42;;;;;;;17.98;61.36;101737.69;5062822;27;20123;-74
2023/09/15 09:42:24;;;;;;;6.00;2.47;;;;;;;17.92;61.84;101719.63;5062439;27;20112;-74
2023/09/15 09:44:52;;;;;;;7.15;2.40;;;;;;;18.01;61.64;101735.28;5054364;27;20073;-73
2023/09/15 09:47:21;;;;;;;3.17;2.38;;;;;;;18.04;61.82;101723.09;5058539;28;20540;-74
2023/09/15 09:49:51;;;;;;;4.07;2.40;;;;;;;18.06;62.01;101723.66;5045509;27;20146;-74
2023/09/15 09:52:19;;;;;;;6.15;2.13;;;;;;;18.11;62.18;101729.16;5061813;28;20057;-74
2023/09/15 09:54:50;;;;;;;5.63;1.95;;;;;;;18.12;62.46;101722.66;5062606;27;20061;-74
2023/09/15 09:57:18;;;;;;;5.90;1.98;;;;;;;18.16;62.07;101724.63;5050955;28;20057;-74
2023/09/15 09:59:45;;;;;;;2.97;1.90;;;;;;;18.14;61.76;101709.63;5058041;27;20669;-73
2023/09/15 10:02:13;;;;;;;3.05;1.98;;;;;;;18.20;61.65;101717.59;5060146;28;20162;-74
2023/09/15 10:04:41;;;;;;;5.07;2.58;;;;;;;18.25;61.87;101718.75;5063441;27;20049;-73
2023/09/15 10:07:11;;;;;;;4.13;2.28;;;;;;;18.21;62.13;101711.09;5062182;27;20204;-74
2023/09/15 10:09:40;;;;;;;5.20;2.78;;;;;;;18.30;62.24;101714.19;5060077;28;20057;-74
2023/09/15 10:12:11;;;;;;;2.13;1.70;;;;;;;18.32;62.23;101709.31;5062360;28;20128;-74
2023/09/15 10:14:39;;;;;;;4.95;2.45;;;;;;;18.37;62.63;101714.00;5048288;27;20140;-74
2023/09/15 10:17:07;;;;;;;3.00;2.03;;;;;;;18.42;63.02;101704.00;5061530;28;20074;-73
2023/09/15 10:19:35;;;;;;;3.85;2.10;;;;;;;18.45;63.00;101691.78;5063453;27;20078;-73
2023/09/15 10:22:04;;;;;;;2.90;2.00;;;;;;;18.48;63.16;101692.09;5062099;28;20101;-73
2023/09/15 10:24:33;;;;;;;2.80;1.85;;;;;;;18.52;62.19;101695.16;5064240;28;20132;-71
2023/09/15 10:27:01;;;;;;;5.80;1.95;;;;;;;18.54;62.00;101688.38;5069160;27;20049;-73
2023/09/15 10:29:32;;;;;;;2.85;2.03;;;;;;;18.58;62.63;101688.69;5062952;28;20421;-71
2023/09/15 10:32:04;;;;;;;5.72;2.28;;;;;;;18.61;62.89;101685.47;5065713;27;20040;-74
2023/09/15 10:34:33;;;;;;;3.22;1.95;;;;;;;18.64;62.99;101682.25;5063845;28;20068;-72
2023/09/15 10:37:02;;;;;;;5.00;1.88;;;;;;;18.68;62.78;101685.28;5076074;27;20076;-74
2023/09/15 10:39:38;;;;;;;4.00;1.98;;;;;;;18.72;62.80;101679.06;5075775;27;20045;-73
2023/09/15 10:42:07;;;;;;;3.65;2.42;;;;;;;18.76;62.55;101673.94;5067220;27;20045;-74
2023/09/15 10:44:35;;;;;;;3.35;2.00;;;;;;;18.79;62.40;101676.16;5056604;27;20229;-73
2023/09/15 10:47:03;;;;;;;3.90;2.35;;;;;;;18.78;62.34;101664.44;5058617;28;20049;-71
2023/09/15 10:49:31;;;;;;;3.80;2.00;;;;;;;18.88;62.76;101677.34;5059406;27;20057;-74
2023/09/15 10:52:02;;;;;;;7.93;2.28;;;;;;;18.91;63.05;101663.19;5062152;28;20098;-74
2023/09/15 10:54:32;;;;;;;3.83;2.25;;;;;;;18.98;63.38;101660.28;5051294;27;20072;-74
2023/09/15 10:57:01;;;;;;;6.82;2.40;;;;;;;19.02;62.94;101664.94;5063794;28;20108;-74
2023/09/15 10:59:29;;;;;;;4.35;2.15;;;;;;;19.05;62.69;101658.16;5060275;27;20513;-73
2023/09/15 11:01:58;;;;;;;3.33;1.80;;;;;;;19.09;62.64;101657.34;5059199;27;20057;-74
2023/09/15 11:04:29;;;;;;;2.90;1.80;;;;;;;19.08;62.87;101644.81;5058275;27;20056;-72
2023/09/15 11:06:58;;;;;;;2.47;1.63;;;;;;;19.17;63.02;101647.88;5060574;28;20045;-74
2023/09/15 11:09:25;;;;;;;3.33;2.15;;;;;;;19.21;63.15;101642.72;5062055;27;20041;-70
2023/09/15 11:11:54;;;;;;;3.13;1.80;;;;;;;19.29;62.99;101643.06;5062805;27;20516;-73
2023/09/15 11:14:24;;;;;;;3.88;1.80;;;;;;;19.34;63.62;101647.75;5059445;28;20065;-73
2023/09/15 11:16:56;;;;;;;3.78;2.20;;;;;;;19.39;63.58;101642.34;5060746;27;20102;-73
2023/09/15 11:19:25;;;;;;;2.53;1.75;;;;;;;19.40;63.22;101633.91;5059475;27;20070;-74
2023/09/15 11:21:53;;;;;;;5.18;2.00;;;;;;;19.48;63.44;101647.03;5061845;28;20435;-74
2023/09/15 11:24:22;;;;;;;3.25;2.20;;;;;;;19.52;63.64;101643.81;5060046;27;20041;-73
2023/09/15 11:26:51;;;;;;;4.00;1.80;;;;;;;19.57;63.58;101639.22;5057698;28;20185;-73
2023/09/15 11:29:27;;;;;;;2.28;1.77;;;;;;;19.62;63.43;101636.53;5055362;27;20053;-73
2023/09/15 11:31:56;;;;;;;2.92;1.83;;;;;;;19.70;63.17;101636.03;5050538;27;20049;-73